createdAt,value
2018-07-13T00:00:44.435Z,69.2
2018-07-13T00:01:34.746Z,69.2
2018-07-13T00:02:24.882Z,69.2
2018-07-13T00:03:15.177Z,69.1
2018-07-13T00:04:04.971Z,69.1
2018-07-13T00:04:55.042Z,69.1
2018-07-13T00:05:44.796Z,69.1
2018-07-13T00:06:34.864Z,69.1
2018-07-13T00:07:25.191Z,69.1
2018-07-13T00:08:15.531Z,69.1
2018-07-13T00:09:04.870Z,69.1
2018-07-13T00:09:55.669Z,69.1
2018-07-13T00:10:45.545Z,69.1
2018-07-13T00:11:35.249Z,69.1
2018-07-13T00:12:25.843Z,69.1
2018-07-13T00:13:15.685Z,69.1
2018-07-13T00:14:05.963Z,69
2018-07-13T00:14:55.559Z,69
2018-07-13T00:15:46.104Z,69
2018-07-13T00:16:35.063Z,69
2018-07-13T00:17:26.265Z,69
2018-07-13T00:18:16.320Z,69
2018-07-13T00:19:05.782Z,69
2018-07-13T00:19:56.412Z,69
2018-07-13T00:20:46.508Z,69
2018-07-13T00:21:36.525Z,69
2018-07-13T00:22:26.605Z,69
2018-07-13T00:23:16.674Z,68.9
2018-07-13T00:24:06.474Z,68.9
2018-07-13T00:24:56.267Z,68.9
2018-07-13T00:25:46.388Z,68.9
2018-07-13T00:26:36.952Z,68.9
2018-07-13T00:27:26.992Z,68.9
2018-07-13T00:28:16.805Z,68.9
2018-07-13T00:29:06.327Z,68.9
2018-07-13T00:29:57.184Z,68.9
2018-07-13T00:30:46.457Z,68.9
2018-07-13T00:31:36.554Z,68.9
2018-07-13T00:32:27.147Z,68.9
2018-07-13T00:33:17.204Z,68.9
2018-07-13T00:34:06.953Z,68.8
2018-07-13T00:34:57.303Z,68.9
2018-07-13T00:35:47.381Z,68.8
2018-07-13T00:36:37.447Z,68.8
2018-07-13T00:37:27.494Z,68.8
2018-07-13T00:38:17.636Z,68.8
2018-07-13T00:39:07.106Z,68.8
2018-07-13T00:39:57.713Z,68.8
2018-07-13T00:40:47.013Z,68.8
2018-07-13T00:41:37.826Z,68.8
2018-07-13T00:42:27.456Z,68.8
2018-07-13T00:43:18.196Z,68.8
2018-07-13T00:44:08.264Z,68.8
2018-07-13T00:44:58.083Z,68.8
2018-07-13T00:45:47.853Z,68.8
2018-07-13T00:46:38.220Z,68.8
2018-07-13T00:47:28.521Z,68.8
2018-07-13T00:48:18.320Z,68.8
2018-07-13T00:49:08.660Z,68.7
2018-07-13T00:49:58.712Z,68.7
2018-07-13T00:50:48.490Z,68.7
2018-07-13T00:51:38.297Z,68.7
2018-07-13T00:52:28.936Z,68.7
2018-07-13T00:53:18.748Z,68.7
2018-07-13T00:54:09.037Z,68.7
2018-07-13T00:54:58.859Z,68.7
2018-07-13T00:55:48.338Z,68.6
2018-07-13T00:56:38.709Z,68.6
2018-07-13T00:57:28.165Z,68.6
2018-07-13T00:58:18.821Z,68.6
2018-07-13T00:59:09.158Z,68.6
2018-07-13T00:59:59.192Z,68.6
2018-07-13T01:00:49.304Z,68.6
2018-07-13T01:01:39.338Z,68.6
2018-07-13T01:02:29.370Z,68.6
2018-07-13T01:03:19.480Z,68.6
2018-07-13T01:04:09.829Z,68.6
2018-07-13T01:04:59.590Z,68.6
2018-07-13T01:05:49.403Z,68.6
2018-07-13T01:06:39.727Z,68.6
2018-07-13T01:07:30.088Z,68.6
2018-07-13T01:08:20.128Z,68.6
2018-07-13T01:09:09.921Z,68.6
2018-07-13T01:10:00.033Z,68.5
2018-07-13T01:10:50.332Z,68.5
2018-07-13T01:11:39.936Z,68.5
2018-07-13T01:12:30.482Z,68.5
2018-07-13T01:13:20.216Z,68.5
2018-07-13T01:14:10.037Z,68.5
2018-07-13T01:15:00.660Z,68.4
2018-07-13T01:15:50.429Z,68.5
2018-07-13T01:16:40.487Z,68.4
2018-07-13T01:17:30.570Z,68.4
2018-07-13T01:18:20.599Z,68.4
2018-07-13T01:19:10.965Z,68.4
2018-07-13T01:20:01.023Z,68.4
2018-07-13T01:20:50.777Z,68.4
2018-07-13T01:21:40.182Z,68.4
2018-07-13T01:22:31.203Z,68.4
2018-07-13T01:23:20.979Z,68.4
2018-07-13T01:24:10.586Z,68.4
2018-07-13T01:25:01.391Z,68.4
2018-07-13T01:25:50.428Z,68.4
2018-07-13T01:26:41.091Z,68.4
2018-07-13T01:27:30.553Z,68.4
2018-07-13T01:28:20.904Z,68.4
2018-07-13T01:29:11.722Z,68.3
2018-07-13T01:30:01.763Z,68.3
2018-07-13T01:30:51.838Z,68.3
2018-07-13T01:31:41.644Z,68.3
2018-07-13T01:32:31.407Z,68.3
2018-07-13T01:33:21.998Z,68.3
2018-07-13T01:34:11.874Z,68.3
2018-07-13T01:35:02.141Z,68.3
2018-07-13T01:35:52.205Z,68.3
2018-07-13T01:36:41.770Z,68.3
2018-07-13T01:37:31.580Z,68.3
2018-07-13T01:38:22.380Z,68.3
2018-07-13T01:39:12.217Z,68.3
2018-07-13T01:40:02.255Z,68.3
2018-07-13T01:40:52.644Z,68.3
2018-07-13T01:41:42.669Z,68.3
2018-07-13T01:42:32.451Z,68.3
2018-07-13T01:43:22.756Z,68.2
2018-07-13T01:44:12.319Z,68.2
2018-07-13T01:45:02.133Z,68.2
2018-07-13T01:45:52.983Z,68.2
2018-07-13T01:46:42.771Z,68.2
2018-07-13T01:47:32.804Z,68.2
2018-07-13T01:48:22.885Z,68.2
2018-07-13T01:49:13.219Z,68.2
2018-07-13T01:50:03.289Z,68.1
2018-07-13T01:50:53.356Z,68.1
2018-07-13T01:51:43.124Z,68.1
2018-07-13T01:52:33.209Z,68.1
2018-07-13T01:53:23.591Z,68.1
2018-07-13T01:54:13.356Z,68.1
2018-07-13T01:55:03.467Z,68.1
2018-07-13T01:55:52.928Z,68.1
2018-07-13T01:56:43.841Z,68.1
2018-07-13T01:57:33.622Z,68.1
2018-07-13T01:58:22.823Z,68.1
2018-07-13T01:59:13.740Z,68.1
2018-07-13T02:00:03.799Z,68.1
2018-07-13T02:00:54.124Z,68.1
2018-07-13T02:01:43.975Z,68.1
2018-07-13T02:02:34.241Z,68.1
2018-07-13T02:03:24.425Z,68
2018-07-13T02:04:14.093Z,68
2018-07-13T02:05:04.545Z,68
2018-07-13T02:05:54.547Z,68
2018-07-13T02:06:44.333Z,68
2018-07-13T02:07:34.645Z,68
2018-07-13T02:08:24.425Z,68
2018-07-13T02:09:14.009Z,67.9
2018-07-13T02:10:04.845Z,67.9
2018-07-13T02:10:54.612Z,67.9
2018-07-13T02:11:44.720Z,67.9
2018-07-13T02:12:34.811Z,67.9
2018-07-13T02:13:24.567Z,67.9
2018-07-13T02:14:14.607Z,67.9
2018-07-13T02:15:04.377Z,67.9
2018-07-13T02:15:55.007Z,67.9
2018-07-13T02:16:44.529Z,67.9
2018-07-13T02:17:35.393Z,67.9
2018-07-13T02:18:24.915Z,67.9
2018-07-13T02:19:15.248Z,67.9
2018-07-13T02:20:05.339Z,67.9
2018-07-13T02:20:55.407Z,67.9
2018-07-13T02:21:45.751Z,67.9
2018-07-13T02:22:34.934Z,67.9
2018-07-13T02:23:25.349Z,67.9
2018-07-13T02:24:15.638Z,67.9
2018-07-13T02:25:05.966Z,67.8
2018-07-13T02:25:55.187Z,67.8
2018-07-13T02:26:45.792Z,67.8
2018-07-13T02:27:35.925Z,67.8
2018-07-13T02:28:26.245Z,67.8
2018-07-13T02:29:16.011Z,67.8
2018-07-13T02:30:06.404Z,67.8
2018-07-13T02:30:56.450Z,67.8
2018-07-13T02:31:46.494Z,67.8
2018-07-13T02:32:36.574Z,67.8
2018-07-13T02:33:26.369Z,67.8
2018-07-13T02:34:16.469Z,67.8
2018-07-13T02:35:06.208Z,67.8
2018-07-13T02:35:56.844Z,67.8
2018-07-13T02:36:46.502Z,67.7
2018-07-13T02:37:37.063Z,67.8
2018-07-13T02:38:26.743Z,67.7
2018-07-13T02:39:17.053Z,67.7
2018-07-13T02:40:06.911Z,67.7
2018-07-13T02:40:56.643Z,67.7
2018-07-13T02:41:46.237Z,67.7
2018-07-13T02:42:36.959Z,67.7
2018-07-13T02:43:27.132Z,67.7
2018-07-13T02:44:16.986Z,67.6
2018-07-13T02:45:07.075Z,67.7
2018-07-13T02:45:56.535Z,67.6
2018-07-13T02:46:47.170Z,67.6
2018-07-13T02:47:37.110Z,67.6
2018-07-13T02:48:27.760Z,67.6
2018-07-13T02:49:16.427Z,67.6
2018-07-13T02:50:07.158Z,67.6
2018-07-13T02:50:56.901Z,67.6
2018-07-13T02:51:46.934Z,67.6
2018-07-13T02:52:38.123Z,67.6
2018-07-13T02:53:26.826Z,67.6
2018-07-13T02:54:17.663Z,67.6
2018-07-13T02:55:08.306Z,67.6
2018-07-13T02:55:58.317Z,67.6
2018-07-13T02:56:48.082Z,67.6
2018-07-13T02:57:37.621Z,67.5
2018-07-13T02:58:28.255Z,67.6
2018-07-13T02:59:18.579Z,67.5
2018-07-13T03:00:08.128Z,67.5
2018-07-13T03:00:58.437Z,67.5
2018-07-13T03:01:48.496Z,67.5
2018-07-13T03:02:38.829Z,67.5
2018-07-13T03:03:28.896Z,67.5
2018-07-13T03:04:18.698Z,67.4
2018-07-13T03:05:08.441Z,67.4
2018-07-13T03:05:59.126Z,67.4
2018-07-13T03:06:48.605Z,67.4
2018-07-13T03:07:38.684Z,67.4
2018-07-13T03:08:28.211Z,67.4
2018-07-13T03:09:19.404Z,67.4
2018-07-13T03:10:09.180Z,67.4
2018-07-13T03:10:58.942Z,67.4
2018-07-13T03:11:49.250Z,67.4
2018-07-13T03:12:39.616Z,67.4
2018-07-13T03:13:28.553Z,67.4
2018-07-13T03:14:19.253Z,67.4
2018-07-13T03:15:09.368Z,67.4
2018-07-13T03:15:59.143Z,67.4
2018-07-13T03:16:49.086Z,67.4
2018-07-13T03:17:40.033Z,67.4
2018-07-13T03:18:29.246Z,67.3
2018-07-13T03:19:20.158Z,67.3
2018-07-13T03:20:09.922Z,67.3
2018-07-13T03:20:59.417Z,67.3
2018-07-13T03:21:49.205Z,67.3
2018-07-13T03:22:39.874Z,67.3
2018-07-13T03:23:29.609Z,67.3
2018-07-13T03:24:19.690Z,67.3
2018-07-13T03:25:24.831Z,67.3
2018-07-13T03:26:00.629Z,67.3
2018-07-13T03:26:50.463Z,67.3
2018-07-13T03:27:40.484Z,67.3
2018-07-13T03:28:30.288Z,67.3
2018-07-13T03:29:20.870Z,67.3
2018-07-13T03:30:10.995Z,67.3
2018-07-13T03:31:00.724Z,67.3
2018-07-13T03:31:50.248Z,67.3
2018-07-13T03:32:40.570Z,67.2
2018-07-13T03:33:30.361Z,67.2
2018-07-13T03:34:21.070Z,67.2
2018-07-13T03:35:11.352Z,67.2
2018-07-13T03:36:01.164Z,67.2
2018-07-13T03:36:51.474Z,67.2
2018-07-13T03:37:40.944Z,67.2
2018-07-13T03:38:31.343Z,67.2
2018-07-13T19:59:36.372Z,67.8
2018-07-13T20:00:26.736Z,67.9
2018-07-13T20:01:16.775Z,67.8
2018-07-13T20:02:06.947Z,67.8
2018-07-13T20:02:57.302Z,67.8
2018-07-13T20:03:46.462Z,67.8
2018-07-13T20:04:36.782Z,67.8
2018-07-13T20:05:26.553Z,67.8
2018-07-13T20:06:17.194Z,67.8
2018-07-13T20:07:06.954Z,67.8
2018-07-13T20:07:57.302Z,67.8
2018-07-13T20:08:47.393Z,67.8
2018-07-13T20:09:36.613Z,67.8
2018-07-13T20:10:26.954Z,67.8
2018-07-13T20:11:18.322Z,67.8
2018-07-13T20:12:07.658Z,67.8
2018-07-13T20:12:57.275Z,67.8
2018-07-13T20:13:47.513Z,67.8
2018-07-13T20:14:37.915Z,67.7
2018-07-13T20:15:27.450Z,67.7
2018-07-13T20:16:17.482Z,67.7
2018-07-13T20:17:08.074Z,67.6
2018-07-13T20:17:57.837Z,67.7
2018-07-13T20:18:47.357Z,67.6
2018-07-13T20:19:37.955Z,67.6
2018-07-13T20:20:27.748Z,67.6
2018-07-13T20:21:17.885Z,67.6
2018-07-13T20:22:07.866Z,67.6
2018-07-13T20:22:57.381Z,67.6
2018-07-13T20:23:48.279Z,67.6
2018-07-13T20:24:37.884Z,67.6
2018-07-13T20:25:28.704Z,67.6
2018-07-13T20:26:18.219Z,67.6
2018-07-13T20:27:08.039Z,67.6
2018-07-13T20:27:58.351Z,67.6
2018-07-13T20:28:48.409Z,67.6
2018-07-13T20:29:38.267Z,67.6
2018-07-13T20:30:28.577Z,67.6
2018-07-13T20:31:18.831Z,67.5
2018-07-13T20:32:08.708Z,67.6
2018-07-13T20:32:58.769Z,67.5
2018-07-13T20:33:48.812Z,67.5
2018-07-13T20:34:39.367Z,67.5
2018-07-13T20:35:29.119Z,67.5
2018-07-13T20:36:19.210Z,67.5
2018-07-13T20:37:09.635Z,67.5
2018-07-13T20:37:59.672Z,67.5
2018-07-13T20:38:49.692Z,67.4
2018-07-13T20:39:39.479Z,67.4
2018-07-13T20:40:29.808Z,67.4
2018-07-13T20:41:19.414Z,67.4
2018-07-13T20:42:09.468Z,67.4
2018-07-13T20:42:58.971Z,67.4
2018-07-13T20:43:49.004Z,67.4
2018-07-13T20:44:39.883Z,67.4
2018-07-13T20:45:30.224Z,67.4
2018-07-13T20:46:20.299Z,67.4
2018-07-13T20:47:10.094Z,67.4
2018-07-13T20:47:59.566Z,67.4
2018-07-13T20:48:50.200Z,67.3
2018-07-13T20:49:40.285Z,67.4
2018-07-13T20:50:30.631Z,67.3
2018-07-13T20:51:20.641Z,67.3
2018-07-13T20:52:10.164Z,67.3
2018-07-13T20:53:00.544Z,67.3
2018-07-13T20:53:50.623Z,67.3
2018-07-13T20:54:40.379Z,67.3
2018-07-13T20:55:31.002Z,67.3
2018-07-13T20:56:20.769Z,67.3
2018-07-13T20:57:10.570Z,67.3
2018-07-13T20:58:00.894Z,67.3
2018-07-13T20:58:51.011Z,67.3
2018-07-13T20:59:40.489Z,67.3
2018-07-13T21:00:31.397Z,67.3
2018-07-13T21:01:20.903Z,67.2
2018-07-13T21:02:11.758Z,67.2
2018-07-13T21:03:02.782Z,67.3
2018-07-13T21:03:51.598Z,67.2
2018-07-13T21:04:41.673Z,67.2
2018-07-13T21:05:31.220Z,67.2
2018-07-13T21:06:21.845Z,67.2
2018-07-13T21:07:11.570Z,67.2
2018-07-13T21:08:01.668Z,67.2
2018-07-13T21:08:51.985Z,67.2
2018-07-13T21:09:42.091Z,67.1
2018-07-13T21:10:31.831Z,67.2
2018-07-13T21:11:22.162Z,67.1
2018-07-13T21:12:11.987Z,67.1
2018-07-13T21:13:02.037Z,67.1
2018-07-13T21:13:52.347Z,67.1
2018-07-13T21:14:42.221Z,67.1
2018-07-13T21:15:31.207Z,67.1
2018-07-13T21:16:21.829Z,67.1
2018-07-13T21:17:11.612Z,67.1
2018-07-13T21:18:01.967Z,67.1
2018-07-13T21:18:52.220Z,67.1
2018-07-13T21:19:42.594Z,67.1
2018-07-13T21:20:32.912Z,67.1
2018-07-13T21:21:22.996Z,67.1
2018-07-13T21:22:13.060Z,67.1
2018-07-13T21:23:02.871Z,67
2018-07-13T21:23:53.185Z,67
2018-07-13T21:24:42.733Z,67
2018-07-13T21:25:33.044Z,67
2018-07-13T21:26:23.435Z,67
2018-07-13T21:27:13.472Z,67
2018-07-13T21:28:03.539Z,66.9
2018-07-13T21:28:53.615Z,66.9
2018-07-13T21:29:42.873Z,66.9
2018-07-13T21:30:33.742Z,66.9
2018-07-13T21:31:23.756Z,66.9
2018-07-13T21:32:13.819Z,66.9
2018-07-13T21:33:03.909Z,66.9
2018-07-13T21:33:53.409Z,66.9
2018-07-13T21:34:43.209Z,66.9
2018-07-13T21:35:33.672Z,66.9
2018-07-13T21:36:23.186Z,66.9
2018-07-13T21:37:13.912Z,66.9
2018-07-13T21:38:03.160Z,66.9
2018-07-13T21:38:54.307Z,66.9
2018-07-13T21:39:43.869Z,66.9
2018-07-13T21:40:33.700Z,66.9
2018-07-13T21:41:23.743Z,66.9
2018-07-13T21:42:14.064Z,66.8
2018-07-13T21:43:03.661Z,66.8
2018-07-13T21:43:54.226Z,66.8
2018-07-13T21:44:44.002Z,66.8
2018-07-13T21:45:34.596Z,66.8
2018-07-13T21:46:24.356Z,66.8
2018-07-13T21:47:14.934Z,66.8
2018-07-13T21:48:04.007Z,66.8
2018-07-13T21:48:54.328Z,66.8
2018-07-13T21:49:44.392Z,66.8
2018-07-13T21:50:35.251Z,66.8
2018-07-13T21:51:24.526Z,66.8
2018-07-13T21:52:16.728Z,66.8
2018-07-13T21:53:04.564Z,66.8
2018-07-13T21:53:55.464Z,66.7
2018-07-13T21:54:44.997Z,66.7
2018-07-13T21:55:35.300Z,66.7
2018-07-13T21:56:25.656Z,66.7
2018-07-13T21:57:15.471Z,66.7
2018-07-13T21:58:05.800Z,66.7
2018-07-13T21:58:55.911Z,66.7
2018-07-13T21:59:45.920Z,66.7
2018-07-13T22:00:36.007Z,66.7
2018-07-13T22:01:25.253Z,66.6
2018-07-13T22:02:15.884Z,66.6
2018-07-13T22:03:06.325Z,66.6
2018-07-13T22:03:55.436Z,66.6
2018-07-13T22:04:46.384Z,66.6
2018-07-13T22:05:35.895Z,66.6
2018-07-13T22:06:26.497Z,66.6
2018-07-13T22:07:15.764Z,66.6
2018-07-13T22:08:06.016Z,66.6
2018-07-13T22:08:56.349Z,66.6
2018-07-13T22:09:46.163Z,66.6
2018-07-13T22:10:36.782Z,66.6
2018-07-13T22:11:26.278Z,66.6
2018-07-13T22:12:16.406Z,66.6
2018-07-13T22:13:06.304Z,66.6
2018-07-13T22:13:55.907Z,66.5
2018-07-13T22:14:46.065Z,66.5
2018-07-13T22:15:36.918Z,66.5
2018-07-13T22:16:26.926Z,66.5
2018-07-13T22:17:17.285Z,66.5
2018-07-13T22:18:07.342Z,66.5
2018-07-13T22:18:57.135Z,66.4
2018-07-13T22:19:47.221Z,66.5
2018-07-13T22:20:37.071Z,66.4
2018-07-13T22:21:27.095Z,66.4
2018-07-13T22:22:17.473Z,66.4
2018-07-13T22:23:07.009Z,66.4
2018-07-13T22:23:58.685Z,66.4
2018-07-13T22:24:47.580Z,66.4
2018-07-13T22:25:38.093Z,66.4
2018-07-13T22:26:28.447Z,66.4
2018-07-13T22:27:17.456Z,66.4
2018-07-13T22:28:08.091Z,66.4
2018-07-13T22:28:57.639Z,66.4
2018-07-13T22:29:48.256Z,66.4
2018-07-13T22:30:38.298Z,66.4
2018-07-13T22:31:28.091Z,66.4
2018-07-13T22:32:18.147Z,66.4
2018-07-13T22:33:08.237Z,66.4
2018-07-13T22:33:58.562Z,66.3
2018-07-13T22:34:48.376Z,66.3
2018-07-13T22:35:38.138Z,66.3
2018-07-13T22:36:28.749Z,66.3
2018-07-13T22:37:17.736Z,66.3
2018-07-13T22:38:08.344Z,66.3
2018-07-13T22:38:58.940Z,66.3
2018-07-13T22:39:48.793Z,66.3
2018-07-13T22:40:37.956Z,66.3
2018-07-13T22:41:29.150Z,66.3
2018-07-13T22:42:18.690Z,66.3
2018-07-13T22:43:09.254Z,66.3
2018-07-13T22:43:59.070Z,66.3
2018-07-13T22:44:48.054Z,66.3
2018-07-13T22:45:39.480Z,66.3
2018-07-13T22:46:29.230Z,66.2
2018-07-13T22:47:18.776Z,66.2
2018-07-13T22:48:09.135Z,66.2
2018-07-13T22:48:59.457Z,66.2
2018-07-13T22:49:49.248Z,66.2
2018-07-13T22:50:39.526Z,66.2
2018-07-13T22:51:29.634Z,66.2
2018-07-13T22:52:19.419Z,66.1
2018-07-13T22:53:09.747Z,66.1
2018-07-13T22:53:59.595Z,66.1
2018-07-13T22:54:49.136Z,66.1
2018-07-13T22:55:39.730Z,66.1
2018-07-13T22:56:29.511Z,66.1
2018-07-13T22:57:19.873Z,66.1
2018-07-13T22:58:09.447Z,66.1
2018-07-13T22:58:59.996Z,66.1
2018-07-13T22:59:50.197Z,66.1
2018-07-13T23:00:40.176Z,66.1
2018-07-13T23:01:29.951Z,66.1
2018-07-13T23:02:19.719Z,66.1
2018-07-13T23:03:09.515Z,66.1
2018-07-13T23:04:00.877Z,66.1
2018-07-13T23:04:50.700Z,66
2018-07-13T23:05:40.977Z,66
2018-07-13T23:06:30.235Z,66
2018-07-13T23:07:20.853Z,66
2018-07-13T23:08:11.187Z,66
2018-07-13T23:09:00.484Z,66
2018-07-13T23:09:51.046Z,65.9
2018-07-13T23:10:40.849Z,65.9
2018-07-13T23:11:31.213Z,65.9
2018-07-13T23:12:21.248Z,65.9
2018-07-13T23:13:11.322Z,65.9
2018-07-13T23:14:01.674Z,65.9
2018-07-13T23:14:51.443Z,65.9
2018-07-13T23:15:41.518Z,65.9
2018-07-13T23:16:31.555Z,65.9
2018-07-13T23:17:21.352Z,65.9
2018-07-13T23:18:11.997Z,65.9
2018-07-13T23:19:01.521Z,65.9
2018-07-13T23:19:51.523Z,65.9
2018-07-13T23:20:41.580Z,65.9
2018-07-13T23:21:31.652Z,65.9
2018-07-13T23:22:22.450Z,65.9
2018-07-13T23:23:12.407Z,65.8
2018-07-13T23:24:03.098Z,65.8
2018-07-13T23:24:52.253Z,65.8
2018-07-13T23:25:42.308Z,65.8
2018-07-13T23:26:32.330Z,65.8
2018-07-13T23:27:22.111Z,65.8
2018-07-13T23:28:12.228Z,65.8
2018-07-13T23:29:01.965Z,65.8
2018-07-13T23:29:52.558Z,65.8
2018-07-13T23:30:42.340Z,65.8
2018-07-13T23:31:32.709Z,65.8
2018-07-13T23:32:22.780Z,65.8
2018-07-13T23:33:12.565Z,65.8
2018-07-13T23:34:03.229Z,65.7
2018-07-13T23:34:52.675Z,65.7
2018-07-13T23:35:42.527Z,65.7
2018-07-13T23:36:33.377Z,65.7
2018-07-13T23:37:23.191Z,65.7
2018-07-13T23:38:13.232Z,65.7
2018-07-13T23:39:03.277Z,65.7
2018-07-13T23:39:53.341Z,65.7
2018-07-13T23:40:43.449Z,65.7
2018-07-13T23:41:33.456Z,65.6
2018-07-13T23:42:23.823Z,65.6
2018-07-13T23:43:13.354Z,65.6
2018-07-13T23:44:03.923Z,65.6
2018-07-13T23:44:53.491Z,65.6
2018-07-13T23:45:43.556Z,65.6
2018-07-13T23:46:33.328Z,65.6
2018-07-13T23:47:23.696Z,65.6
2018-07-13T23:48:13.744Z,65.6
2018-07-13T23:49:04.120Z,65.6
2018-07-13T23:49:53.946Z,65.6
2018-07-13T23:50:43.161Z,65.6
2018-07-13T23:51:34.332Z,65.6
2018-07-13T23:52:23.847Z,65.6
2018-07-13T23:53:13.923Z,65.6
2018-07-13T23:54:03.413Z,65.6
2018-07-13T23:54:54.034Z,65.6
2018-07-13T23:55:44.313Z,65.5
2018-07-13T23:56:34.677Z,65.5
2018-07-13T23:57:24.747Z,65.5
2018-07-13T23:58:14.776Z,65.5
2018-07-13T23:59:05.103Z,65.5
2018-07-13T23:59:54.635Z,65.5
